Main page
METAR-TAF:

METAR-TAF

Airports :

Vitebsk Vostochny Airport

Vitebsk, Belarus

latitude: 55-10N, longitude: 030-13E, elevation: 176 m

Current weather observation

The report was made 3 hours and 40 minutes ago, at 16:00 UTC
Wind 6 kt from the North/Northeast
Temperature 14°C
Humidity 24%
Pressure 1028 hPa
Visibility 10 km or more
no clouds below 1500 m and no cumulonimbus

METAR: UMII 191600Z 03003MPS CAVOK 14/M06 Q1028 R23/D NOSIG

Time: 22:40 (19:40 UTC)

Forecast

The report was made 5 hours and 38 minutes ago, at 14:02 UTC
Forecast valid from 19 at 15 UTC to 19 at 24 UTC
Wind 6 kt from the North
Visibility 10 km or more
Scattered clouds at a height of 2000 ft

TAF: UMII 191402Z 1915/1924 01003MPS 9999 SCT020

Weather observations and forecasts of more than 4000 airports (METAR and TAF reports).

The available stations are represented by yellow and red dots on the map.

Hover mouse over dot to see the name of the station.

Then click to see weather observations and forecasts.

To change the map : click on the green buttons with a black cross to zoom in, on the green button with a dash to zoom out, or on the green arrows for adjacent maps.


METAR-TAF: